Toyofukumaru — JD2177 — position and weather

sailwx.info

Track history (hours):
 
Tides and Currents Weather Stations Pressure Air Temp Water Temp Dewpoint Dewpoint Depression Visibility Wind Speed Wind Dir Waves Ship Positions

Toyofukumaru

Last reported at 2017-Dec-11 17:00 UTC. Time now 2017-Dec-13 11:26 UTC.
Position N 34°12' E 134°60'.

Length 165 m; draft 5.2 m.

Type: Cargo ship. MMSI: 431200688.

Date/timePositionNaut miles runAvg speedWind from/ knotsBaromVisibWave heightAir tempDewpointWater temp
2017-Dec-11 17:00N 34°12' E 134°60'918.5
2017-Dec-11 16:30N 34°03' E 135°01'1019.3
2017-Dec-11 16:01N 33°53' E 135°00'1018.6
2017-Dec-11 15:29N 33°45' E 135°07'1019.3
2017-Dec-11 14:58N 33°38' E 135°15'1118.6
2017-Dec-11 14:24N 33°30' E 135°24'5617.3
2017-Dec-11 11:08N 33°51' E 136°27'720.9
2017-Dec-11 10:47N 33°56' E 136°33'721.1
2017-Dec-11 10:27N 34°01' E 136°39'920.6
2017-Dec-11 10:00N 34°08' E 136°47'2319.5
2017-Dec-11 08:49N 34°28' E 137°02'516.1
2017-Dec-11 08:29N 34°33' E 137°01'811.5
2017-Dec-11 07:49N 34°40' E 137°04'619.2
2017-Dec-11 07:30N 34°43' E 137°10'8 2.8
2017-Dec-11 04:45N 34°44' E 137°19'1 2.7
2017-Dec-11 04:30N 34°44' E 137°19'714.8
2017-Dec-11 04:00N 34°42' E 137°10'1019.1
2017-Dec-11 03:30N 34°40' E 136°59'1020.3
2017-Dec-11 03:00N 34°46' E 136°49'1020.1
2017-Dec-11 02:30N 34°55' E 136°46'816.9
2017-Dec-11 02:00N 35°03' E 136°52'1 1.5
2017-Dec-11 01:30N 35°03' E 136°53'0 0.0
2017-Dec-11 01:00N 35°03' E 136°53'0 0.6
2017-Dec-11 00:30N 35°03' E 136°53'0 0.7
2017-Dec-10 23:59N 35°03' E 136°53'0 0.0
2017-Dec-10 23:29N 35°03' E 136°53'0 0.0
2017-Dec-10 22:59N 35°03' E 136°53'0 0.0
2017-Dec-10 22:29N 35°03' E 136°53'0 0.0
2017-Dec-10 21:59N 35°03' E 136°53'0 0.0
2017-Dec-10 21:29N 35°03' E 136°53'0 0.0
2017-Dec-10 20:59N 35°03' E 136°53'0 0.0
2017-Dec-10 20:29N 35°03' E 136°53'0 0.0
2017-Dec-10 19:59N 35°03' E 136°53'0 0.0
2017-Dec-10 19:29N 35°03' E 136°53'0 0.0
2017-Dec-10 18:59N 35°03' E 136°53'0 0.0
2017-Dec-10 18:29N 35°03' E 136°53'0 0.0
2017-Dec-10 17:59N 35°03' E 136°53'0 0.0
2017-Dec-10 17:29N 35°03' E 136°53'0 0.0
2017-Dec-10 16:59N 35°03' E 136°53'0 0.0
2017-Dec-10 16:29N 35°03' E 136°53'0 0.0
2017-Dec-10 15:59N 35°03' E 136°53'0 0.0
2017-Dec-10 15:29N 35°03' E 136°53'0 0.0
2017-Dec-10 14:59N 35°03' E 136°53'0 0.0
2017-Dec-10 14:29N 35°03' E 136°53'0 0.0
2017-Dec-10 13:59N 35°03' E 136°53'0 0.0
2017-Dec-10 13:29N 35°03' E 136°53'0 0.0
2017-Dec-10 12:59N 35°03' E 136°53'0 0.0
2017-Dec-10 12:29N 35°03' E 136°53'0 0.0
2017-Dec-10 11:59N 35°03' E 136°53'0 0.0
2017-Dec-10 11:29N 35°03' E 136°53'0 0.0
2017-Dec-10 10:59N 35°03' E 136°53'0 0.0
2017-Dec-10 10:29N 35°03' E 136°53'0 0.0
2017-Dec-10 09:59N 35°03' E 136°53'0 0.0
2017-Dec-10 09:29N 35°03' E 136°53'0 0.0
2017-Dec-10 08:59N 35°03' E 136°53'0 0.0
2017-Dec-10 08:29N 35°03' E 136°53'0 0.0
2017-Dec-10 07:59N 35°03' E 136°53'2 3.1
2017-Dec-10 07:30N 35°02' E 136°51'4 8.0
2017-Dec-10 07:00N 34°59' E 136°49'1019.2
2017-Dec-10 06:30N 34°50' E 136°44'3 6.1
2017-Dec-10 06:00N 34°47' E 136°43'918.0
2017-Dec-10 05:30N 34°42' E 136°53'916.4
2017-Dec-10 04:58N 34°40' E 137°03'817.6
2017-Dec-10 04:30N 34°43' E 137°12'5 0.8
2017-Dec-09 22:31N 34°43' E 137°18'0 4.4
2017-Dec-09 22:27N 34°44' E 137°18'511.3
2017-Dec-09 22:00N 34°43' E 137°12'2 3.7
2017-Dec-09 21:30N 34°43' E 137°10'0 0.4
2017-Dec-09 21:00N 34°43' E 137°10'0 0.2
2017-Dec-09 20:30N 34°43' E 137°10'0 0.4
2017-Dec-09 20:00N 34°43' E 137°09'0 0.6
2017-Dec-09 19:30N 34°44' E 137°09'1 1.7
2017-Dec-09 19:00N 34°43' E 137°09'917.8
2017-Dec-09 18:30N 34°38' E 136°60'510.6
2017-Dec-09 18:01N 34°33' E 137°02'1615.7
2017-Dec-09 16:58N 34°17' E 137°02'1217.0
2017-Dec-09 16:14N 34°05' E 136°55'817.1
2017-Dec-09 15:44N 33°60' E 136°48'2417.3
2017-Dec-09 14:20N 33°44' E 136°26'5315.1
2017-Dec-09 10:49N 33°27' E 135°26'817.1
2017-Dec-09 10:20N 33°31' E 135°17'1418.2
2017-Dec-09 09:35N 33°42' E 135°07'317.8
2017-Dec-09 09:26N 33°44' E 135°05'818.8
2017-Dec-09 09:00N 33°50' E 134°59'918.0
2017-Dec-09 08:30N 33°59' E 134°59'918.8
2017-Dec-09 08:00N 34°08' E 134°59'918.8
2017-Dec-09 07:30N 34°18' E 134°59'917.9
2017-Dec-09 07:01N 34°25' E 135°05'918.2
2017-Dec-09 06:30N 34°31' E 135°13'917.8
2017-Dec-09 06:00N 34°38' E 135°20'4 7.5
2017-Dec-09 05:30N 34°41' E 135°23'0 0.0
2017-Dec-09 04:58N 34°41' E 135°23'0 0.0
2017-Dec-09 04:25N 34°41' E 135°23'0 0.0
2017-Dec-09 04:00N 34°41' E 135°23'1 2.3
2017-Dec-09 03:30N 34°40' E 135°22'713.3
2017-Dec-09 03:00N 34°35' E 135°18'5 9.6
2017-Dec-09 02:30N 34°30' E 135°17'0 0.2
2017-Dec-09 01:59N 34°30' E 135°17'0 0.0
2017-Dec-09 01:29N 34°30' E 135°17'0 0.0
2017-Dec-09 00:59N 34°30' E 135°17'0 0.0
2017-Dec-09 00:23N 34°30' E 135°17'0 0.1
2017-Dec-08 23:59N 34°30' E 135°17'0 0.0
2017-Dec-08 23:29N 34°30' E 135°17'0 0.0
2017-Dec-08 22:59N 34°30' E 135°17'0 0.0
2017-Dec-08 22:29N 34°30' E 135°17'0 0.0
2017-Dec-08 21:53N 34°30' E 135°17'0 0.0
2017-Dec-08 21:26N 34°30' E 135°17'0 0.1
2017-Dec-08 20:59N 34°30' E 135°17'0 0.1
2017-Dec-08 20:29N 34°30' E 135°17'0 0.0
2017-Dec-08 19:59N 34°30' E 135°17'0 0.0
2017-Dec-08 19:29N 34°30' E 135°17'0 0.1
2017-Dec-08 18:59N 34°30' E 135°17'0 0.0
2017-Dec-08 18:29N 34°30' E 135°17'0 0.0
2017-Dec-08 17:59N 34°30' E 135°17'0 0.1
2017-Dec-08 17:29N 34°30' E 135°17'0 0.0
2017-Dec-08 16:50N 34°30' E 135°17'0 0.1
2017-Dec-08 16:29N 34°30' E 135°17'0 0.0
2017-Dec-08 15:59N 34°30' E 135°17'0 0.0
2017-Dec-08 15:29N 34°30' E 135°17'0 0.0
2017-Dec-08 14:59N 34°30' E 135°17'0 0.0
2017-Dec-08 14:29N 34°30' E 135°17'0 0.0
2017-Dec-08 13:59N 34°30' E 135°17'0 0.0
2017-Dec-08 13:29N 34°30' E 135°17'0 0.0
2017-Dec-08 12:59N 34°30' E 135°17'0 0.0
2017-Dec-08 12:30N 34°30' E 135°17'3 5.5
2017-Dec-08 12:01N 34°29' E 135°13'917.4
2017-Dec-08 11:31N 34°34' E 135°05'917.8
2017-Dec-08 11:00N 34°35' E 134°54'1019.8
2017-Dec-08 10:30N 34°31' E 134°43'1019.9
2017-Dec-08 10:00N 34°27' E 134°32'1019.8
2017-Dec-08 09:30N 34°24' E 134°20'1020.0
2017-Dec-08 09:00N 34°26' E 134°08'  
Track history (hours):
 
Tides and Currents Weather Stations Pressure Air Temp Water Temp Dewpoint Dewpoint Depression Visibility Wind Speed Wind Dir Waves Ship Positions

Toyofukumaru

Last reported at 2017-Dec-11 17:00 UTC. Time now 2017-Dec-13 11:26 UTC.
Position N 34°12' E 134°60'.

Length 165 m; draft 5.2 m.

Type: Cargo ship. MMSI: 431200688.

Date/timePositionNaut miles runAvg speedWind from/ knotsBaromVisibWave heightAir tempDewpointWater temp
2017-Dec-11 17:00N 34°12' E 134°60'918.5
2017-Dec-11 16:30N 34°03' E 135°01'1019.3
2017-Dec-11 16:01N 33°53' E 135°00'1018.6
2017-Dec-11 15:29N 33°45' E 135°07'1019.3
2017-Dec-11 14:58N 33°38' E 135°15'1118.6
2017-Dec-11 14:24N 33°30' E 135°24'5617.3
2017-Dec-11 11:08N 33°51' E 136°27'720.9
2017-Dec-11 10:47N 33°56' E 136°33'721.1
2017-Dec-11 10:27N 34°01' E 136°39'920.6
2017-Dec-11 10:00N 34°08' E 136°47'2319.5
2017-Dec-11 08:49N 34°28' E 137°02'516.1
2017-Dec-11 08:29N 34°33' E 137°01'811.5
2017-Dec-11 07:49N 34°40' E 137°04'619.2
2017-Dec-11 07:30N 34°43' E 137°10'8 2.8
2017-Dec-11 04:45N 34°44' E 137°19'1 2.7
2017-Dec-11 04:30N 34°44' E 137°19'714.8
2017-Dec-11 04:00N 34°42' E 137°10'1019.1
2017-Dec-11 03:30N 34°40' E 136°59'1020.3
2017-Dec-11 03:00N 34°46' E 136°49'1020.1
2017-Dec-11 02:30N 34°55' E 136°46'816.9
2017-Dec-11 02:00N 35°03' E 136°52'1 1.5
2017-Dec-11 01:30N 35°03' E 136°53'0 0.0
2017-Dec-11 01:00N 35°03' E 136°53'0 0.6
2017-Dec-11 00:30N 35°03' E 136°53'0 0.7
2017-Dec-10 23:59N 35°03' E 136°53'0 0.0
2017-Dec-10 23:29N 35°03' E 136°53'0 0.0
2017-Dec-10 22:59N 35°03' E 136°53'0 0.0
2017-Dec-10 22:29N 35°03' E 136°53'0 0.0
2017-Dec-10 21:59N 35°03' E 136°53'0 0.0
2017-Dec-10 21:29N 35°03' E 136°53'0 0.0
2017-Dec-10 20:59N 35°03' E 136°53'0 0.0
2017-Dec-10 20:29N 35°03' E 136°53'0 0.0
2017-Dec-10 19:59N 35°03' E 136°53'0 0.0
2017-Dec-10 19:29N 35°03' E 136°53'0 0.0
2017-Dec-10 18:59N 35°03' E 136°53'0 0.0
2017-Dec-10 18:29N 35°03' E 136°53'0 0.0
2017-Dec-10 17:59N 35°03' E 136°53'0 0.0
2017-Dec-10 17:29N 35°03' E 136°53'0 0.0
2017-Dec-10 16:59N 35°03' E 136°53'0 0.0
2017-Dec-10 16:29N 35°03' E 136°53'0 0.0
2017-Dec-10 15:59N 35°03' E 136°53'0 0.0
2017-Dec-10 15:29N 35°03' E 136°53'0 0.0
2017-Dec-10 14:59N 35°03' E 136°53'0 0.0
2017-Dec-10 14:29N 35°03' E 136°53'0 0.0
2017-Dec-10 13:59N 35°03' E 136°53'0 0.0
2017-Dec-10 13:29N 35°03' E 136°53'0 0.0
2017-Dec-10 12:59N 35°03' E 136°53'0 0.0
2017-Dec-10 12:29N 35°03' E 136°53'0 0.0
2017-Dec-10 11:59N 35°03' E 136°53'0 0.0
2017-Dec-10 11:29N 35°03' E 136°53'0 0.0
2017-Dec-10 10:59N 35°03' E 136°53'0 0.0
2017-Dec-10 10:29N 35°03' E 136°53'0 0.0
2017-Dec-10 09:59N 35°03' E 136°53'0 0.0
2017-Dec-10 09:29N 35°03' E 136°53'0 0.0
2017-Dec-10 08:59N 35°03' E 136°53'0 0.0
2017-Dec-10 08:29N 35°03' E 136°53'0 0.0
2017-Dec-10 07:59N 35°03' E 136°53'2 3.1
2017-Dec-10 07:30N 35°02' E 136°51'4 8.0
2017-Dec-10 07:00N 34°59' E 136°49'1019.2
2017-Dec-10 06:30N 34°50' E 136°44'3 6.1
2017-Dec-10 06:00N 34°47' E 136°43'918.0
2017-Dec-10 05:30N 34°42' E 136°53'916.4
2017-Dec-10 04:58N 34°40' E 137°03'817.6
2017-Dec-10 04:30N 34°43' E 137°12'5 0.8
2017-Dec-09 22:31N 34°43' E 137°18'0 4.4
2017-Dec-09 22:27N 34°44' E 137°18'511.3
2017-Dec-09 22:00N 34°43' E 137°12'2 3.7
2017-Dec-09 21:30N 34°43' E 137°10'0 0.4
2017-Dec-09 21:00N 34°43' E 137°10'0 0.2
2017-Dec-09 20:30N 34°43' E 137°10'0 0.4
2017-Dec-09 20:00N 34°43' E 137°09'0 0.6
2017-Dec-09 19:30N 34°44' E 137°09'1 1.7
2017-Dec-09 19:00N 34°43' E 137°09'917.8
2017-Dec-09 18:30N 34°38' E 136°60'510.6
2017-Dec-09 18:01N 34°33' E 137°02'1615.7
2017-Dec-09 16:58N 34°17' E 137°02'1217.0
2017-Dec-09 16:14N 34°05' E 136°55'817.1
2017-Dec-09 15:44N 33°60' E 136°48'2417.3
2017-Dec-09 14:20N 33°44' E 136°26'5315.1
2017-Dec-09 10:49N 33°27' E 135°26'817.1
2017-Dec-09 10:20N 33°31' E 135°17'1418.2
2017-Dec-09 09:35N 33°42' E 135°07'317.8
2017-Dec-09 09:26N 33°44' E 135°05'818.8
2017-Dec-09 09:00N 33°50' E 134°59'918.0
2017-Dec-09 08:30N 33°59' E 134°59'918.8
2017-Dec-09 08:00N 34°08' E 134°59'918.8
2017-Dec-09 07:30N 34°18' E 134°59'917.9
2017-Dec-09 07:01N 34°25' E 135°05'918.2
2017-Dec-09 06:30N 34°31' E 135°13'917.8
2017-Dec-09 06:00N 34°38' E 135°20'4 7.5
2017-Dec-09 05:30N 34°41' E 135°23'0 0.0
2017-Dec-09 04:58N 34°41' E 135°23'0 0.0
2017-Dec-09 04:25N 34°41' E 135°23'0 0.0
2017-Dec-09 04:00N 34°41' E 135°23'1 2.3
2017-Dec-09 03:30N 34°40' E 135°22'713.3
2017-Dec-09 03:00N 34°35' E 135°18'5 9.6
2017-Dec-09 02:30N 34°30' E 135°17'0 0.2
2017-Dec-09 01:59N 34°30' E 135°17'0 0.0
2017-Dec-09 01:29N 34°30' E 135°17'0 0.0
2017-Dec-09 00:59N 34°30' E 135°17'0 0.0
2017-Dec-09 00:23N 34°30' E 135°17'0 0.1
2017-Dec-08 23:59N 34°30' E 135°17'0 0.0
2017-Dec-08 23:29N 34°30' E 135°17'0 0.0
2017-Dec-08 22:59N 34°30' E 135°17'0 0.0
2017-Dec-08 22:29N 34°30' E 135°17'0 0.0
2017-Dec-08 21:53N 34°30' E 135°17'0 0.0
2017-Dec-08 21:26N 34°30' E 135°17'0 0.1
2017-Dec-08 20:59N 34°30' E 135°17'0 0.1
2017-Dec-08 20:29N 34°30' E 135°17'0 0.0
2017-Dec-08 19:59N 34°30' E 135°17'0 0.0
2017-Dec-08 19:29N 34°30' E 135°17'0 0.1
2017-Dec-08 18:59N 34°30' E 135°17'0 0.0
2017-Dec-08 18:29N 34°30' E 135°17'0 0.0
2017-Dec-08 17:59N 34°30' E 135°17'0 0.1
2017-Dec-08 17:29N 34°30' E 135°17'0 0.0
2017-Dec-08 16:50N 34°30' E 135°17'0 0.1
2017-Dec-08 16:29N 34°30' E 135°17'0 0.0
2017-Dec-08 15:59N 34°30' E 135°17'0 0.0
2017-Dec-08 15:29N 34°30' E 135°17'0 0.0
2017-Dec-08 14:59N 34°30' E 135°17'0 0.0
2017-Dec-08 14:29N 34°30' E 135°17'0 0.0
2017-Dec-08 13:59N 34°30' E 135°17'0 0.0
2017-Dec-08 13:29N 34°30' E 135°17'0 0.0
2017-Dec-08 12:59N 34°30' E 135°17'0 0.0
2017-Dec-08 12:30N 34°30' E 135°17'3 5.5
2017-Dec-08 12:01N 34°29' E 135°13'917.4
2017-Dec-08 11:31N 34°34' E 135°05'917.8
2017-Dec-08 11:00N 34°35' E 134°54'1019.8
2017-Dec-08 10:30N 34°31' E 134°43'1019.9
2017-Dec-08 10:00N 34°27' E 134°32'1019.8
2017-Dec-08 09:30N 34°24' E 134°20'1020.0
2017-Dec-08 09:00N 34°26' E 134°08'  

Dump ship's entire track history